Time;durP1;ratioP1;P1;durP2;ratioP2;P2;SDS_P1;SDS_P2;PMS_P1;PMS_P2;Temp;Humidity;BMP_temperature;BMP_pressure;BME280_temperature;BME280_humidity;BME280_pressure;Samples;Min_cycle;Max_cycle;Signal;HPM_P1;HPM_P2
2021/11/26 00:00:14;;;;;;;;;81.33;73.67;;;;;17.65;50.62;97438.06;4864747;28;102462;-61
2021/11/26 00:02:41;;;;;;;;;79.33;68.67;;;;;17.64;51.22;97434.50;4849939;28;102536;-61
2021/11/26 00:05:08;;;;;;;;;82.00;73.67;;;;;17.65;50.97;97438.84;4850496;28;104243;-61
2021/11/26 00:07:35;;;;;;;;;78.33;68.67;;;;;17.66;50.32;97439.66;4873113;28;102776;-62
2021/11/26 00:10:03;;;;;;;;;78.33;67.67;;;;;17.66;50.38;97439.66;4881508;28;102540;-62
2021/11/26 00:12:30;;;;;;;;;79.67;68.67;;;;;17.68;50.88;97443.78;4875942;28;103645;-61
2021/11/26 00:17:27;;;;;;;;;76.67;64.00;;;;;17.68;50.82;97442.97;4851411;28;102457;-61
2021/11/26 00:19:54;;;;;;;;;81.00;69.67;;;;;17.69;50.98;97445.44;4825782;28;104204;-61
2021/11/26 00:22:21;;;;;;;;;76.67;64.00;;;;;17.69;50.19;97448.16;4863579;28;102754;-61
2021/11/26 00:24:49;;;;;;;;;78.67;64.33;;;;;17.68;50.32;97432.84;4838420;28;103852;-62
2021/11/26 00:27:16;;;;;;;;;74.67;62.00;;;;;17.70;50.43;97436.13;4873070;28;103492;-61
2021/11/26 00:29:43;;;;;;;;;78.33;66.00;;;;;17.70;50.80;97436.13;4783099;28;102736;-61
2021/11/26 00:32:10;;;;;;;;;76.67;64.33;;;;;17.71;50.05;97424.09;4867209;28;104169;-61
2021/11/26 00:34:37;;;;;;;;;76.33;65.00;;;;;17.71;50.81;97426.00;4891723;28;108842;-61
2021/11/26 00:37:04;;;;;;;;;75.67;63.33;;;;;17.72;50.22;97427.66;4840964;28;102615;-61
2021/11/26 00:39:31;;;;;;;;;76.00;63.67;;;;;17.72;50.96;97428.47;4852972;28;102762;-61
2021/11/26 00:41:58;;;;;;;;;76.00;63.67;;;;;17.71;50.04;97415.88;4881259;28;102544;-62
2021/11/26 00:44:25;;;;;;;;;75.33;63.00;;;;;17.71;50.50;97426.81;4892596;28;104160;-61
2021/11/26 00:46:52;;;;;;;;;74.67;60.67;;;;;17.73;50.75;97421.91;4864892;28;103468;-61
2021/11/26 00:49:19;;;;;;;;;78.00;61.67;;;;;17.73;49.75;97410.16;4860509;28;102566;-61
2021/11/26 00:51:47;;;;;;;;;74.00;59.67;;;;;17.73;50.44;97405.50;4789045;28;103790;-61
2021/11/26 00:54:14;;;;;;;;;71.67;58.00;;;;;17.74;50.44;97406.31;4755737;28;102936;-61
2021/11/26 00:56:41;;;;;;;;;74.00;61.00;;;;;17.74;49.61;97398.91;4873471;28;102522;-62
2021/11/26 00:59:08;;;;;;;;;73.67;59.33;;;;;17.74;50.10;97393.44;4889092;28;104974;-61
2021/11/26 01:01:35;;;;;;;;;74.33;61.00;;;;;17.75;50.04;97397.00;4858499;28;102497;-62
2021/11/26 01:04:02;;;;;;;;;71.33;57.00;;;;;17.74;50.03;97387.97;4830781;28;104164;-61
2021/11/26 01:06:31;;;;;;;;;71.25;57.50;;;;;17.74;49.83;97393.44;4875078;28;102562;-61
2021/11/26 01:08:58;;;;;;;;;74.00;60.67;;;;;17.74;49.99;97387.19;4846869;28;102658;-62
2021/11/26 01:11:25;;;;;;;;;71.50;57.00;;;;;17.74;50.39;97382.50;4832200;28;103718;-61
2021/11/26 01:13:52;;;;;;;;;71.00;58.00;;;;;17.74;50.63;97374.31;4869809;28;111624;-61
2021/11/26 01:16:20;;;;;;;;;73.33;60.00;;;;;17.74;50.48;97368.84;4867757;28;103008;-61
2021/11/26 01:18:47;;;;;;;;;72.25;56.75;;;;;17.75;50.19;97369.66;4873437;28;102201;-61
2021/11/26 01:21:14;;;;;;;;;69.00;55.00;;;;;17.73;50.24;97367.22;4847815;28;102629;-62
2021/11/26 01:23:41;;;;;;;;;67.00;54.00;;;;;17.74;50.15;97362.59;4873158;28;105545;-61
2021/11/26 01:26:08;;;;;;;;;69.50;56.00;;;;;17.73;49.67;97361.75;4816166;28;102519;-62
2021/11/26 01:28:35;;;;;;;;;67.50;55.00;;;;;17.74;50.12;97366.09;4873725;28;103253;-61
2021/11/26 01:31:03;;;;;;;;;70.00;55.75;;;;;17.74;49.45;97359.84;4853680;28;102546;-61
2021/11/26 01:33:31;;;;;;;;;70.00;55.75;;;;;17.74;49.50;97363.38;4811455;28;104329;-61
2021/11/26 01:35:58;;;;;;;;;69.67;55.00;;;;;17.73;49.71;97369.97;4866481;28;103463;-61
2021/11/26 01:38:25;;;;;;;;;68.75;55.75;;;;;17.75;49.33;97364.19;4809932;28;105432;-61
2021/11/26 01:40:53;;;;;;;;;66.75;53.75;;;;;17.74;49.80;97366.09;4853714;28;102593;-61
2021/11/26 01:43:23;;;;;;;;;66.75;52.75;;;;;17.72;49.21;97360.13;4884596;28;105297;-61
2021/11/26 01:45:52;;;;;;;;;68.00;52.75;;;;;17.75;50.11;97362.28;4868442;28;102723;-61
2021/11/26 01:48:20;;;;;;;;;64.75;53.00;;;;;17.74;49.28;97366.09;4676485;28;104002;-61
2021/11/26 01:50:48;;;;;;;;;66.25;53.75;;;;;17.74;49.83;97349.72;4821056;28;102695;-62
2021/11/26 01:53:15;;;;;;;;;69.25;53.50;;;;;17.73;49.95;97350.81;4837032;28;104050;-61
2021/11/26 01:55:42;;;;;;;;;65.25;53.00;;;;;17.73;50.03;97350.81;4829560;28;102542;-61
2021/11/26 01:58:10;;;;;;;;;66.75;54.00;;;;;17.74;50.02;97340.72;4881344;28;102502;-61
2021/11/26 02:00:38;;;;;;;;;60.50;50.25;;;;;17.74;49.86;97327.03;4728834;28;102638;-61
2021/11/26 02:03:08;;;;;;;;;63.75;51.75;;;;;17.74;49.16;97327.03;4826532;28;104060;-61
2021/11/26 02:05:35;;;;;;;;;60.25;49.00;;;;;17.72;49.59;97324.56;4823080;28;103604;-61
2021/11/26 02:08:02;;;;;;;;;60.25;49.50;;;;;17.72;49.18;97313.63;4850007;28;103400;-61
2021/11/26 02:10:29;;;;;;;;;64.25;51.50;;;;;17.73;49.16;97328.13;4813114;28;102637;-61
2021/11/26 02:12:56;;;;;;;;;61.25;50.25;;;;;17.72;48.90;97338.25;4875143;28;103820;-61
2021/11/26 02:15:25;;;;;;;;;62.25;51.00;;;;;17.74;49.78;97337.97;4815461;28;102662;-61
2021/11/26 02:17:53;;;;;;;;;59.75;48.50;;;;;17.73;49.92;97341.81;4870979;28;103661;-61
2021/11/26 02:20:25;;;;;;;;;64.00;51.50;;;;;17.71;49.22;97336.59;4738361;28;103210;-61
2021/11/26 02:22:52;;;;;;;;;59.00;48.00;;;;;17.73;49.49;97330.88;4883953;28;104074;-61
2021/11/26 02:25:20;;;;;;;;;61.25;50.25;;;;;17.72;49.54;97330.03;4839532;28;102591;-61
2021/11/26 02:27:47;;;;;;;;;55.50;47.25;;;;;17.72;49.16;97315.56;4914357;28;102711;-61
2021/11/26 02:30:17;;;;;;;;;59.25;48.75;;;;;17.71;49.77;97302.97;4888583;28;103407;-61
2021/11/26 02:32:58;;;;;;;;;58.25;48.00;;;;;17.70;49.32;97307.63;4797623;28;104578;-61
2021/11/26 02:35:26;;;;;;;;;59.75;49.50;;;;;17.70;49.26;97304.88;4874223;28;102570;-61
2021/11/26 02:37:54;;;;;;;;;62.25;48.75;;;;;17.70;49.75;97283.00;4863438;28;102224;-61
2021/11/26 02:40:22;;;;;;;;;59.25;48.50;;;;;17.71;49.18;97308.44;4874236;28;102262;-61
2021/11/26 02:42:50;;;;;;;;;60.00;48.50;;;;;17.70;48.99;97291.22;4861127;28;104064;-61
2021/11/26 02:45:17;;;;;;;;;61.25;49.25;;;;;17.70;48.94;97272.06;4852604;28;102498;-61
2021/11/26 02:47:44;;;;;;;;;60.00;48.75;;;;;17.72;48.92;97290.94;4864278;28;108662;-61
2021/11/26 02:50:12;;;;;;;;;55.75;47.00;;;;;17.70;48.96;97274.81;4853799;28;102521;-61
2021/11/26 02:52:39;;;;;;;;;58.25;48.00;;;;;17.70;49.43;97291.22;4795890;28;104356;-60
2021/11/26 02:55:07;;;;;;;;;59.75;48.75;;;;;17.69;49.32;97286.88;4860071;28;102539;-61
2021/11/26 02:57:34;;;;;;;;;58.00;48.50;;;;;17.69;49.63;97284.13;4883325;28;102488;-61
2021/11/26 03:00:06;;;;;;;;;57.00;46.25;;;;;17.69;49.70;97289.59;4893269;28;103237;-61
2021/11/26 03:02:33;;;;;;;;;58.00;47.00;;;;;17.69;49.71;97275.94;4797300;28;105731;-61
2021/11/26 03:05:01;;;;;;;;;55.25;45.25;;;;;17.69;49.41;97284.13;4875599;28;102392;-61
2021/11/26 03:07:28;;;;;;;;;55.75;45.75;;;;;17.69;49.62;97286.03;4821823;28;102116;-61
2021/11/26 03:09:55;;;;;;;;;54.25;45.00;;;;;17.68;49.19;97285.22;4850702;28;103614;-61
2021/11/26 03:12:22;;;;;;;;;57.25;46.25;;;;;17.68;49.13;97278.94;4869403;28;104052;-61
2021/11/26 03:14:49;;;;;;;;;56.25;47.00;;;;;17.69;48.84;97289.59;4855344;28;102435;-61
2021/11/26 03:17:16;;;;;;;;;57.50;47.00;;;;;17.67;49.44;97283.56;4872371;28;103861;-62
2021/11/26 03:19:43;;;;;;;;;53.50;43.50;;;;;17.67;49.10;97267.16;4875139;28;102669;-61
2021/11/26 03:22:11;;;;;;;;;61.25;48.00;;;;;17.67;49.74;97278.13;4842060;28;104237;-61
2021/11/26 03:24:38;;;;;;;;;53.00;45.00;;;;;17.69;49.48;97266.91;4891995;28;105738;-61
2021/11/26 03:27:05;;;;;;;;;57.50;46.50;;;;;17.68;48.89;97266.09;4848403;28;102651;-61
2021/11/26 03:29:33;;;;;;;;;55.50;45.25;;;;;17.67;48.59;97261.72;4842194;28;103370;-61
2021/11/26 03:31:59;;;;;;;;;53.00;44.00;;;;;17.67;48.74;97249.94;4881056;28;103997;-61
2021/11/26 03:34:26;;;;;;;;;53.00;45.25;;;;;17.66;49.43;97253.78;4868231;28;103166;-61
2021/11/26 03:36:54;;;;;;;;;52.50;44.25;;;;;17.67;48.62;97241.75;4774237;28;102767;-61
2021/11/26 03:39:21;;;;;;;;;53.25;43.75;;;;;17.67;48.83;97233.56;4887628;28;102820;-61
2021/11/26 03:41:47;;;;;;;;;52.25;45.00;;;;;17.66;49.52;97237.38;4876848;28;104086;-60
2021/11/26 03:44:14;;;;;;;;;51.25;43.25;;;;;17.65;48.93;97238.50;4783205;28;103449;-61
2021/11/26 03:46:41;;;;;;;;;55.75;45.25;;;;;17.64;48.49;97234.94;4868136;28;103997;-61
2021/11/26 03:49:08;;;;;;;;;48.25;40.00;;;;;17.65;49.30;97231.09;4890063;28;102547;-61
2021/11/26 03:51:35;;;;;;;;;52.00;43.25;;;;;17.64;49.23;97234.94;4809113;28;104037;-61
2021/11/26 03:54:03;;;;;;;;;54.00;43.50;;;;;17.64;49.29;97229.47;4880578;28;102591;-62
2021/11/26 03:56:30;;;;;;;;;51.00;42.00;;;;;17.63;49.24;97227.81;4874588;28;103461;-61
2021/11/26 03:58:57;;;;;;;;;55.75;44.00;;;;;17.64;49.13;97229.47;4783686;28;102568;-61
2021/11/26 04:01:24;;;;;;;;;53.25;42.75;;;;;17.64;48.47;97225.91;4869313;28;103994;-60
2021/11/26 04:03:51;;;;;;;;;52.00;41.00;;;;;17.64;49.08;97218.53;4846957;28;102564;-61
2021/11/26 04:06:18;;;;;;;;;54.50;43.25;;;;;17.64;49.11;97218.53;4873791;28;102183;-61
2021/11/26 04:08:45;;;;;;;;;50.25;42.50;;;;;17.65;49.16;97217.41;4839772;28;102709;-61
2021/11/26 04:11:12;;;;;;;;;51.50;41.50;;;;;17.64;48.55;97224.00;4765545;28;104173;-61
2021/11/26 04:13:39;;;;;;;;;51.25;42.75;;;;;17.64;48.74;97214.97;4808564;28;102385;-61
2021/11/26 04:16:12;;;;;;;;;52.50;41.50;;;;;17.63;48.89;97214.16;4834510;28;105918;-61
2021/11/26 04:18:40;;;;;;;;;48.00;40.50;;;;;17.64;48.90;97223.19;4876570;28;102740;-61
2021/11/26 04:21:07;;;;;;;;;51.75;42.25;;;;;17.63;48.97;97225.09;4865606;28;103902;-61
2021/11/26 04:23:34;;;;;;;;;53.00;43.00;;;;;17.62;48.59;97220.72;4815688;28;102641;-61
2021/11/26 04:26:01;;;;;;;;;38.25;33.50;;;;;17.62;49.15;97215.25;4887535;28;103102;-61
2021/11/26 04:28:28;;;;;;;;;50.50;41.25;;;;;17.62;49.61;97208.97;4868184;28;102521;-61
2021/11/26 04:30:58;;;;;;;;;48.00;40.00;;;;;17.61;49.10;97197.22;4839272;28;104078;-61
2021/11/26 04:33:26;;;;;;;;;50.75;42.00;;;;;17.62;48.96;97182.44;4739221;28;104046;-61
2021/11/26 04:35:53;;;;;;;;;51.00;40.00;;;;;17.61;49.21;97186.28;4838828;28;102712;-61
2021/11/26 04:38:21;;;;;;;;;45.25;38.00;;;;;17.62;49.16;97190.66;4878777;28;102626;-61
2021/11/26 04:40:49;;;;;;;;;44.50;36.50;;;;;17.61;49.24;97175.34;4763612;28;103212;-61
2021/11/26 04:43:16;;;;;;;;;45.25;38.25;;;;;17.61;48.81;97180.81;4776467;28;102556;-61
2021/11/26 04:45:43;;;;;;;;;49.50;40.25;;;;;17.62;49.43;97187.09;4861230;28;103040;-61
2021/11/26 04:48:10;;;;;;;;;47.75;40.00;;;;;17.60;49.20;97173.72;4787964;28;102568;-61
2021/11/26 04:50:37;;;;;;;;;45.25;37.75;;;;;17.61;48.62;97180.81;4875341;28;104193;-61
2021/11/26 04:53:04;;;;;;;;;45.75;37.25;;;;;17.61;49.25;97180.81;4883623;28;102488;-61
2021/11/26 04:55:31;;;;;;;;;49.75;40.50;;;;;17.60;48.68;97173.72;4871754;28;102442;-61
2021/11/26 04:57:58;;;;;;;;;44.75;38.00;;;;;17.60;48.88;97181.09;4841183;28;102519;-61
2021/11/26 05:00:25;;;;;;;;;45.50;36.75;;;;;17.59;49.36;97177.56;4805575;28;104137;-61
2021/11/26 05:02:52;;;;;;;;;45.75;38.00;;;;;17.59;49.38;97183.03;4861348;28;102544;-61
2021/11/26 05:05:19;;;;;;;;;45.75;37.00;;;;;17.59;49.56;97180.28;4881677;28;103469;-61
2021/11/26 05:07:46;;;;;;;;;44.00;37.50;;;;;17.59;49.98;97188.50;4806256;28;102512;-61
2021/11/26 05:10:14;;;;;;;;;44.50;38.25;;;;;17.59;49.39;97183.03;4862032;28;104304;-61
2021/11/26 05:12:48;;;;;;;;;44.50;37.00;;;;;17.60;48.88;97183.84;4857825;28;104077;-61
2021/11/26 05:15:15;;;;;;;;;45.25;38.00;;;;;17.60;49.64;97181.09;4757438;28;102464;-61
2021/11/26 05:17:42;;;;;;;;;46.75;38.25;;;;;17.60;49.15;97176.47;4856201;28;104013;-61
2021/11/26 05:20:10;;;;;;;;;45.50;37.75;;;;;17.61;50.14;97174.53;4867901;28;104006;-61
2021/11/26 05:22:39;;;;;;;;;44.25;38.00;;;;;17.60;49.09;97162.78;4828428;28;102652;-61
2021/11/26 05:25:06;;;;;;;;;45.50;38.50;;;;;17.60;49.85;97153.78;4882113;28;102560;-60
2021/11/26 05:27:33;;;;;;;;;42.75;37.00;;;;;17.60;49.69;97154.59;4863398;28;102655;-61
2021/11/26 05:30:00;;;;;;;;;41.50;36.00;;;;;17.60;50.07;97151.03;4745468;28;104062;-60
2021/11/26 05:32:27;;;;;;;;;44.75;37.00;;;;;17.59;49.39;97128.34;4826306;28;103253;-61
2021/11/26 05:34:54;;;;;;;;;42.50;36.75;;;;;17.59;49.31;97142.03;4879003;28;102037;-61
2021/11/26 05:37:21;;;;;;;;;42.50;35.75;;;;;17.59;50.03;97152.94;4820315;28;103631;-61
2021/11/26 05:39:48;;;;;;;;;42.00;36.00;;;;;17.60;49.84;97157.34;4817919;28;108838;-61
2021/11/26 05:42:15;;;;;;;;;42.00;35.25;;;;;17.59;49.72;97154.88;4865432;28;102336;-61
2021/11/26 05:44:42;;;;;;;;;41.00;35.00;;;;;17.59;49.46;97150.22;4712868;28;104183;-61
2021/11/26 05:47:09;;;;;;;;;42.75;36.75;;;;;17.60;49.11;97140.09;4862423;28;104233;-60
2021/11/26 05:49:36;;;;;;;;;46.50;36.75;;;;;17.59;49.35;97136.56;4863183;28;104173;-61
2021/11/26 05:52:04;;;;;;;;;37.75;34.00;;;;;17.60;49.56;97132.72;4818852;28;102523;-61
2021/11/26 05:54:31;;;;;;;;;44.75;35.00;;;;;17.59;49.98;97133.81;4880579;28;102159;-61
2021/11/26 05:56:58;;;;;;;;;43.75;37.75;;;;;17.60;50.00;97129.19;4874605;28;103124;-61
2021/11/26 05:59:25;;;;;;;;;39.00;35.00;;;;;17.59;49.77;97128.34;4819206;28;104355;-61
2021/11/26 06:01:52;;;;;;;;;37.00;34.50;;;;;17.59;50.36;97122.06;4844614;28;102413;-61
2021/11/26 06:04:19;;;;;;;;;40.00;34.75;;;;;17.60;49.45;97126.44;4823313;28;102362;-61
2021/11/26 06:06:46;;;;;;;;;38.25;33.75;;;;;17.59;49.57;97127.53;4867051;28;102703;-61
2021/11/26 06:09:13;;;;;;;;;36.75;33.25;;;;;17.58;50.05;97126.72;4880137;28;112092;-61
2021/11/26 06:11:40;;;;;;;;;41.00;35.00;;;;;17.58;49.05;97125.84;4877212;28;102634;-61
2021/11/26 06:14:07;;;;;;;;;39.00;35.00;;;;;17.59;49.64;97127.53;4836685;28;102714;-61
2021/11/26 06:16:34;;;;;;;;;38.00;34.00;;;;;17.59;49.20;97136.56;4870932;28;102292;-60
2021/11/26 06:19:01;;;;;;;;;41.25;34.75;;;;;17.58;50.30;97134.91;4841334;28;104161;-61
2021/11/26 06:21:28;;;;;;;;;38.75;34.25;;;;;17.58;49.65;97134.06;4877225;28;102684;-61
2021/11/26 06:23:55;;;;;;;;;41.75;35.00;;;;;17.58;49.55;97140.38;4848788;28;102363;-60
2021/11/26 06:26:22;;;;;;;;;38.00;34.00;;;;;17.58;49.31;97140.38;4764452;28;103436;-61
2021/11/26 06:28:49;;;;;;;;;35.75;32.00;;;;;17.58;49.56;97148.56;4864410;28;104156;-61
2021/11/26 06:31:16;;;;;;;;;35.50;31.50;;;;;17.58;49.44;97136.78;4888156;28;102644;-61
2021/11/26 06:33:43;;;;;;;;;38.50;32.75;;;;;17.58;49.37;97143.13;4788936;28;104431;-61
2021/11/26 06:36:10;;;;;;;;;37.00;34.00;;;;;17.58;49.13;97147.72;4855789;28;102882;-61
2021/11/26 06:38:37;;;;;;;;;37.25;34.50;;;;;17.58;49.76;97140.38;4884834;28;103619;-61
2021/11/26 06:41:04;;;;;;;;;35.25;32.00;;;;;17.58;49.29;97132.19;4816801;28;102374;-61
2021/11/26 06:43:31;;;;;;;;;40.50;34.00;;;;;17.58;49.67;97117.66;4830229;28;102414;-61
2021/11/26 06:45:58;;;;;;;;;36.00;33.00;;;;;17.57;49.64;97119.56;4835953;28;102215;-61
2021/11/26 06:48:27;;;;;;;;;41.25;34.50;;;;;17.57;49.82;97118.75;4786543;28;108932;-61
2021/11/26 06:50:54;;;;;;;;;41.00;35.50;;;;;17.56;49.32;97120.66;4872392;28;103125;-61
2021/11/26 06:53:21;;;;;;;;;37.75;34.00;;;;;17.56;50.13;97117.94;4874450;28;102541;-61
2021/11/26 06:55:49;;;;;;;;;34.75;32.00;;;;;17.56;49.05;97122.59;4834392;28;102566;-61
2021/11/26 06:58:16;;;;;;;;;40.00;35.00;;;;;17.56;49.74;97117.16;4861744;28;104143;-60
2021/11/26 07:00:44;;;;;;;;;34.25;31.00;;;;;17.55;48.71;97110.84;4706879;28;103213;-61
2021/11/26 07:03:11;;;;;;;;;32.25;30.75;;;;;17.56;48.88;97111.69;4884991;28;102513;-61
2021/11/26 07:05:39;;;;;;;;;29.75;25.00;;;;;17.55;49.52;97105.38;4844101;28;102342;-61
2021/11/26 07:08:06;;;;;;;;;32.75;30.50;;;;;17.55;50.08;97101.84;4863332;28;104181;-61
2021/11/26 07:10:33;;;;;;;;;36.00;32.50;;;;;17.55;49.22;97099.94;4866503;28;102691;-61
2021/11/26 07:13:00;;;;;;;;;33.75;30.75;;;;;17.55;49.53;97104.56;4881806;28;103812;-61
2021/11/26 07:15:27;;;;;;;;;33.25;31.75;;;;;17.55;49.47;97105.38;4868052;28;102582;-61
2021/11/26 07:17:54;;;;;;;;;29.25;26.50;;;;;17.55;49.11;97102.66;4878163;28;103477;-61
2021/11/26 07:20:21;;;;;;;;;33.75;32.00;;;;;17.55;49.37;97099.09;4728074;28;102814;-61
2021/11/26 07:22:52;;;;;;;;;33.75;29.75;;;;;17.54;49.00;97092.81;4883656;28;102465;-61
2021/11/26 07:25:20;;;;;;;;;33.50;31.50;;;;;17.54;49.71;97100.19;4884307;28;102204;-61
2021/11/26 07:27:46;;;;;;;;;31.25;29.75;;;;;17.53;49.62;97102.09;4804560;28;110266;-60
2021/11/26 07:30:14;;;;;;;;;29.25;28.75;;;;;17.54;48.99;97092.00;4878601;28;102640;-61
2021/11/26 07:32:41;;;;;;;;;28.75;28.00;;;;;17.54;49.61;97087.34;4885521;28;102420;-61
2021/11/26 07:35:09;;;;;;;;;33.00;31.25;;;;;17.54;48.81;97083.78;4812806;28;102610;-62
2021/11/26 07:37:36;;;;;;;;;27.25;26.50;;;;;17.52;48.68;97075.88;4859266;28;104036;-61
2021/11/26 07:40:04;;;;;;;;;31.25;28.25;;;;;17.51;49.17;97079.72;4883793;28;102442;-61
2021/11/26 07:42:31;;;;;;;;;32.25;27.25;;;;;17.53;49.42;97082.16;4856702;28;102371;-60
2021/11/26 07:44:58;;;;;;;;;34.00;29.50;;;;;17.52;50.24;97069.59;4845126;28;102481;-61
2021/11/26 07:47:25;;;;;;;;;33.50;32.00;;;;;17.52;49.34;97075.88;4732553;28;104236;-61
2021/11/26 07:49:53;;;;;;;;;32.75;29.50;;;;;17.53;49.89;97079.44;4858474;28;103419;-61
2021/11/26 07:52:20;;;;;;;;;35.75;32.00;;;;;17.52;48.95;97070.41;4872004;28;102559;-61
2021/11/26 07:54:47;;;;;;;;;29.00;27.75;;;;;17.52;49.37;97062.19;4887211;28;102261;-60
2021/11/26 07:57:14;;;;;;;;;34.25;32.25;;;;;17.52;49.82;97062.19;4886039;28;103838;-61
2021/11/26 07:59:42;;;;;;;;;32.25;30.50;;;;;17.51;49.55;97052.41;4830969;28;103869;-61
2021/11/26 08:02:10;;;;;;;;;31.75;28.50;;;;;17.50;49.68;97050.75;4895595;28;102252;-61
2021/11/26 08:04:37;;;;;;;;;32.25;29.00;;;;;17.51;49.26;97049.66;4855996;28;103343;-61
2021/11/26 08:07:04;;;;;;;;;34.75;27.50;;;;;17.51;49.73;97048.84;4815095;28;104449;-61
2021/11/26 08:09:31;;;;;;;;;30.00;28.75;;;;;17.49;49.58;97040.91;4818733;28;102692;-61
2021/11/26 08:11:58;;;;;;;;;29.75;27.50;;;;;17.49;49.34;97032.72;4877681;28;101973;-61
2021/11/26 08:14:25;;;;;;;;;33.25;29.00;;;;;17.49;49.59;97031.91;4860858;28;103926;-61
2021/11/26 08:16:54;;;;;;;;;33.00;29.75;;;;;17.48;49.64;97036.53;4868561;28;104110;-61
2021/11/26 08:19:22;;;;;;;;;30.50;28.25;;;;;17.49;49.61;97032.72;4707258;28;102387;-61
2021/11/26 08:21:49;;;;;;;;;34.00;30.75;;;;;17.49;49.95;97029.16;4815483;28;103727;-61
2021/11/26 08:24:16;;;;;;;;;32.00;29.00;;;;;17.48;49.72;97025.63;4807748;28;102726;-61
2021/11/26 08:26:43;;;;;;;;;29.00;27.50;;;;;17.48;48.84;97028.34;4809588;28;104058;-60
2021/11/26 08:29:10;;;;;;;;;29.75;28.00;;;;;17.49;49.72;97024.53;4836682;28;102199;-61
2021/11/26 08:31:37;;;;;;;;;25.75;25.25;;;;;17.48;49.77;97020.16;4859780;28;102678;-60
2021/11/26 08:34:05;;;;;;;;;28.75;25.75;;;;;17.49;49.68;97019.06;4873001;28;102493;-61
2021/11/26 08:36:32;;;;;;;;;27.75;25.50;;;;;17.49;48.80;97024.53;4901915;28;104035;-61
2021/11/26 08:38:59;;;;;;;;;27.75;25.75;;;;;17.48;49.29;97020.16;4788648;28;102432;-61
2021/11/26 08:41:26;;;;;;;;;28.00;25.75;;;;;17.48;48.74;97017.41;4871240;28;102568;-61
2021/11/26 08:43:53;;;;;;;;;28.75;27.50;;;;;17.48;49.19;97009.22;4892759;28;102416;-61
2021/11/26 08:46:21;;;;;;;;;31.75;27.75;;;;;17.47;49.61;96993.13;4893590;28;105370;-61
2021/11/26 08:48:48;;;;;;;;;27.75;25.50;;;;;17.47;49.33;96993.13;4855281;28;102426;-61
2021/11/26 08:51:16;;;;;;;;;27.75;26.00;;;;;17.48;49.15;96995.56;4880364;28;102200;-61
2021/11/26 08:53:45;;;;;;;;;27.50;25.00;;;;;17.47;49.03;96985.72;4815495;28;102450;-61
2021/11/26 08:56:13;;;;;;;;;27.25;25.75;;;;;17.47;49.96;96990.41;4850407;28;104155;-61
2021/11/26 08:58:41;;;;;;;;;28.75;26.00;;;;;17.46;48.63;96986.84;4883988;28;102465;-60
2021/11/26 09:01:08;;;;;;;;;30.00;25.00;;;;;17.46;49.46;96981.38;4774480;28;102252;-61
2021/11/26 09:03:35;;;;;;;;;30.50;26.50;;;;;17.46;49.43;96980.56;4826526;28;104589;-61
2021/11/26 09:06:03;;;;;;;;;26.00;25.75;;;;;17.46;49.80;96975.09;4886139;28;103944;-61
2021/11/26 09:08:30;;;;;;;;;29.25;25.75;;;;;17.46;49.17;96970.44;4875899;28;104047;-61
2021/11/26 09:10:57;;;;;;;;;28.75;25.50;;;;;17.47;49.03;96965.81;4874010;28;104760;-61
2021/11/26 09:13:25;;;;;;;;;29.00;24.00;;;;;17.46;49.27;96956.78;4819581;28;104210;-61
2021/11/26 09:15:52;;;;;;;;;26.50;24.00;;;;;17.44;49.41;96964.44;4837107;28;103952;-61
2021/11/26 09:18:19;;;;;;;;;27.75;26.00;;;;;17.45;49.07;96963.34;4848835;28;102338;-60
2021/11/26 09:20:50;;;;;;;;;26.75;23.75;;;;;17.46;48.93;96958.69;4853879;28;102514;-61
2021/11/26 09:23:18;;;;;;;;;24.00;23.25;;;;;17.45;48.68;96957.88;4869282;28;102883;-61
2021/11/26 09:25:45;;;;;;;;;24.00;22.00;;;;;17.46;48.86;96958.69;4888428;28;104012;-61
2021/11/26 09:28:12;;;;;;;;;30.00;26.50;;;;;17.45;48.59;96944.22;4896382;28;102216;-60
2021/11/26 09:30:39;;;;;;;;;27.00;25.75;;;;;17.44;49.03;96942.56;4878359;28;101998;-61
2021/11/26 09:33:06;;;;;;;;;30.00;27.25;;;;;17.44;49.31;96941.75;4885719;28;102561;-61
2021/11/26 09:35:34;;;;;;;;;30.25;27.50;;;;;17.45;49.32;96936.00;4884643;28;110045;-60
2021/11/26 09:38:01;;;;;;;;;27.00;26.25;;;;;17.45;49.35;96936.00;4877552;28;103019;-61
2021/11/26 09:40:28;;;;;;;;;27.50;26.00;;;;;17.43;48.88;96927.28;4887020;28;101974;-61
2021/11/26 09:42:55;;;;;;;;;23.00;21.75;;;;;17.43;49.09;96919.06;4891791;28;102414;-61
2021/11/26 09:45:25;;;;;;;;;28.75;25.25;;;;;17.44;49.31;96911.69;4887144;28;104592;-61
2021/11/26 09:47:52;;;;;;;;;27.00;24.00;;;;;17.44;49.23;96907.06;4887687;28;102488;-61
2021/11/26 09:50:20;;;;;;;;;22.50;20.50;;;;;17.44;49.31;96907.06;4886232;28;102571;-60
2021/11/26 09:52:47;;;;;;;;;28.75;27.75;;;;;17.44;48.94;96901.59;4879826;28;102356;-60
2021/11/26 09:55:17;;;;;;;;;31.75;24.75;;;;;17.44;49.50;96900.75;4882756;28;104127;-61
2021/11/26 09:57:44;;;;;;;;;28.25;25.75;;;;;17.44;48.80;96895.31;4894249;28;102616;-61
2021/11/26 10:00:13;;;;;;;;;20.25;20.25;;;;;17.43;48.84;96891.75;4890961;28;102681;-61
2021/11/26 10:02:50;;;;;;;;;22.50;22.00;;;;;17.42;49.87;96888.19;4877006;28;102682;-60
2021/11/26 10:05:17;;;;;;;;;29.25;23.00;;;;;17.42;48.61;96881.94;4883731;28;104186;-61
2021/11/26 10:07:51;;;;;;;;;30.25;26.75;;;;;17.42;48.87;96873.75;4891556;28;102470;-60
2021/11/26 10:10:23;;;;;;;;;26.00;23.25;;;;;17.42;48.81;96870.19;4887884;28;102529;-60
2021/11/26 10:13:11;;;;;;;;;25.00;23.75;;;;;17.42;49.55;96865.56;4883677;28;102205;-60
2021/11/26 10:15:40;;;;;;;;;23.50;22.75;;;;;17.42;48.70;96865.56;4883777;28;108928;-61
2021/11/26 10:18:10;;;;;;;;;25.25;25.25;;;;;17.42;48.90;96859.28;4877512;28;102276;-61
2021/11/26 10:20:50;;;;;;;;;28.00;24.00;;;;;17.42;48.96;96862.00;4881451;28;102625;-61
2021/11/26 10:23:18;;;;;;;;;25.50;23.25;;;;;17.42;49.83;96854.63;4894941;28;102271;-61
2021/11/26 10:25:45;;;;;;;;;26.50;23.25;;;;;17.41;48.62;96844.78;4889323;28;104306;-60
2021/11/26 10:28:12;;;;;;;;;25.75;22.25;;;;;17.42;49.18;96837.41;4873465;28;102167;-60
2021/11/26 10:30:41;;;;;;;;;25.50;24.25;;;;;17.42;48.40;96837.41;4884024;28;102308;-61
2021/11/26 10:33:34;;;;;;;;;22.50;20.50;;;;;17.40;49.36;96827.56;4895347;28;102606;-61
2021/11/26 10:36:01;;;;;;;;;24.25;22.00;;;;;17.42;48.88;96827.31;4880270;28;109253;-61
2021/11/26 10:38:33;;;;;;;;;23.50;21.25;;;;;17.42;48.60;96823.75;4876843;28;102248;-61
2021/11/26 10:41:04;;;;;;;;;26.50;23.00;;;;;17.40;49.17;96818.56;4887972;28;102155;-61
2021/11/26 10:43:59;;;;;;;;;26.50;23.50;;;;;17.41;49.74;96809.28;4896252;28;104325;-60
2021/11/26 10:46:44;;;;;;;;;27.75;24.75;;;;;17.40;49.06;96796.69;4895111;28;108810;-61
2021/11/26 10:59:51;;;;;;;;;27.00;20.75;;;;;17.40;48.58;96778.41;4891992;28;102929;-61
2021/11/26 11:02:35;;;;;;;;;25.25;23.00;;;;;17.39;48.57;96773.22;4885263;28;102496;-61
2021/11/26 11:05:03;;;;;;;;;19.25;17.00;;;;;17.39;49.62;96768.56;4889684;28;102502;-61
2021/11/26 11:07:44;;;;;;;;;18.00;18.00;;;;;17.40;49.15;96753.00;4888023;28;104138;-61
2021/11/26 11:10:23;;;;;;;;;25.25;22.00;;;;;17.39;48.19;96757.63;4895493;28;102795;-61
2021/11/26 11:12:50;;;;;;;;;31.50;23.50;;;;;17.39;48.50;96751.34;4894236;28;104150;-61
2021/11/26 11:15:19;;;;;;;;;23.75;21.75;;;;;17.40;48.46;96747.53;4886480;28;106752;-61
2021/11/26 11:17:47;;;;;;;;;23.25;20.00;;;;;17.38;48.39;96741.56;4890131;28;104967;-61
2021/11/26 11:20:16;;;;;;;;;23.75;22.25;;;;;17.38;48.50;96722.44;4893160;28;102293;-61
2021/11/26 11:22:44;;;;;;;;;22.00;21.00;;;;;17.38;48.66;96719.69;4886425;28;102431;-61
2021/11/26 11:25:18;;;;;;;;;21.00;20.75;;;;;17.37;48.42;96707.94;4892938;28;104224;-61